Time;durP1;ratioP1;P1;durP2;ratioP2;P2;SDS_P1;SDS_P2;PMS_P1;PMS_P2;Temp;Humidity;BMP_temperature;BMP_pressure;BME280_temperature;BME280_humidity;BME280_pressure;Samples;Min_cycle;Max_cycle;Signal;HPM_P1;HPM_P2
2020/12/26 00:01:55;;;;;;;5.00;1.85;;;;;;;;;;5042093;28;20036;-62
2020/12/26 00:04:21;;;;;;;3.47;1.65;;;;;;;;;;5047463;28;20033;-61
2020/12/26 00:06:50;;;;;;;5.40;1.27;;;;;;;;;;5045165;28;20068;-62
2020/12/26 00:09:16;;;;;;;3.95;1.80;;;;;;;;;;5047988;28;20033;-61
2020/12/26 00:11:42;;;;;;;3.80;1.77;;;;;;;;;;5046817;28;20071;-61
2020/12/26 00:14:08;;;;;;;5.72;1.58;;;;;;;;;;5047970;28;20029;-61
2020/12/26 00:16:34;;;;;;;2.97;1.50;;;;;;;;;;5047500;28;20044;-61
2020/12/26 00:19:00;;;;;;;6.18;1.80;;;;;;;;;;5047309;28;20087;-63
2020/12/26 00:21:26;;;;;;;5.57;1.70;;;;;;;;;;5045980;28;20067;-61
2020/12/26 00:23:52;;;;;;;4.20;2.20;;;;;;;;;;5044032;28;20099;-68
2020/12/26 00:26:18;;;;;;;5.03;2.17;;;;;;;;;;5043818;28;20503;-67
2020/12/26 00:28:45;;;;;;;5.20;1.98;;;;;;;;;;5047306;28;20513;-67
2020/12/26 00:31:15;;;;;;;5.90;2.08;;;;;;;;;;5047679;28;20017;-67
2020/12/26 00:33:41;;;;;;;7.82;2.22;;;;;;;;;;5047563;28;20033;-67
2020/12/26 00:36:07;;;;;;;5.63;2.15;;;;;;;;;;5048146;28;20033;-67
2020/12/26 00:38:33;;;;;;;6.82;2.65;;;;;;;;;;5047186;28;20074;-68
2020/12/26 00:41:01;;;;;;;8.50;3.35;;;;;;;;;;5046979;28;20430;-69
2020/12/26 00:43:27;;;;;;;7.22;2.60;;;;;;;;;;5047987;28;20083;-68
2020/12/26 00:45:53;;;;;;;5.60;2.67;;;;;;;;;;5047608;28;20033;-69
2020/12/26 00:48:19;;;;;;;7.07;2.55;;;;;;;;;;5047496;28;20029;-68
2020/12/26 00:50:45;;;;;;;8.30;2.53;;;;;;;;;;5047118;28;20032;-67
2020/12/26 00:53:11;;;;;;;5.95;2.78;;;;;;;;;;5047235;28;20491;-67
2020/12/26 00:55:37;;;;;;;5.05;2.13;;;;;;;;;;5047682;28;20144;-68
2020/12/26 00:58:03;;;;;;;8.68;2.67;;;;;;;;;;5047108;28;20032;-69
2020/12/26 01:00:29;;;;;;;7.95;2.30;;;;;;;;;;5047439;28;20503;-68
2020/12/26 01:02:55;;;;;;;5.68;2.10;;;;;;;;;;5047104;28;20060;-67
2020/12/26 01:05:21;;;;;;;5.30;1.83;;;;;;;;;;5045342;28;20029;-70
2020/12/26 01:07:47;;;;;;;3.10;1.83;;;;;;;;;;5046654;28;20466;-67
2020/12/26 01:10:14;;;;;;;4.20;2.00;;;;;;;;;;5046697;28;20064;-67
2020/12/26 01:12:41;;;;;;;5.93;2.25;;;;;;;;;;5046725;28;20025;-69
2020/12/26 01:15:08;;;;;;;5.07;1.92;;;;;;;;;;5047413;28;20109;-68
2020/12/26 01:17:35;;;;;;;3.20;1.60;;;;;;;;;;5046616;28;20487;-68
2020/12/26 01:20:01;;;;;;;4.75;1.80;;;;;;;;;;5046922;28;20020;-69
2020/12/26 01:22:27;;;;;;;4.47;1.77;;;;;;;;;;5046649;28;20033;-67
2020/12/26 01:24:54;;;;;;;2.50;1.35;;;;;;;;;;5046390;28;20028;-67
2020/12/26 01:27:20;;;;;;;3.75;1.42;;;;;;;;;;5046723;28;20032;-67
2020/12/26 01:29:46;;;;;;;2.78;1.38;;;;;;;;;;5046442;28;20152;-67
2020/12/26 01:32:13;;;;;;;2.50;1.27;;;;;;;;;;5046101;28;20021;-67
2020/12/26 01:34:39;;;;;;;2.85;1.55;;;;;;;;;;5047083;28;20498;-67
2020/12/26 01:37:05;;;;;;;2.15;1.38;;;;;;;;;;5045925;28;20073;-66
2020/12/26 01:39:32;;;;;;;2.28;1.60;;;;;;;;;;5046111;28;20024;-67
2020/12/26 01:41:58;;;;;;;2.83;1.30;;;;;;;;;;5046360;28;20037;-67
2020/12/26 01:44:24;;;;;;;3.75;1.48;;;;;;;;;;5045763;28;20025;-67
2020/12/26 01:46:51;;;;;;;2.22;1.15;;;;;;;;;;5047149;28;20040;-67
2020/12/26 01:49:18;;;;;;;2.38;1.33;;;;;;;;;;5047688;28;20029;-68
2020/12/26 01:51:45;;;;;;;2.58;1.33;;;;;;;;;;5047449;28;20028;-67
2020/12/26 01:54:12;;;;;;;6.60;1.35;;;;;;;;;;5047183;28;20025;-67
2020/12/26 01:56:41;;;;;;;2.90;1.10;;;;;;;;;;5047169;28;20082;-67
2020/12/26 01:59:08;;;;;;;3.85;1.45;;;;;;;;;;5047694;28;20029;-67
2020/12/26 02:01:40;;;;;;;2.17;1.42;;;;;;;;;;5048061;28;20102;-67
2020/12/26 02:04:08;;;;;;;1.90;1.33;;;;;;;;;;5046860;28;20049;-67
2020/12/26 02:06:38;;;;;;;2.85;1.38;;;;;;;;;;5047405;28;20029;-67
2020/12/26 02:09:06;;;;;;;1.60;0.88;;;;;;;;;;5047802;28;20094;-67
2020/12/26 02:11:32;;;;;;;2.80;1.30;;;;;;;;;;5047547;28;20028;-67
2020/12/26 02:13:59;;;;;;;2.88;1.00;;;;;;;;;;5047369;28;20052;-67
2020/12/26 02:16:25;;;;;;;3.30;1.40;;;;;;;;;;5047328;28;20060;-67
2020/12/26 02:18:51;;;;;;;2.47;1.35;;;;;;;;;;5047099;28;20029;-67
2020/12/26 02:21:17;;;;;;;2.80;1.10;;;;;;;;;;5046643;28;20553;-67
2020/12/26 02:23:44;;;;;;;3.92;1.20;;;;;;;;;;5046711;28;20041;-67
2020/12/26 02:26:10;;;;;;;2.30;0.90;;;;;;;;;;5046693;28;20027;-66
2020/12/26 02:28:36;;;;;;;2.72;1.10;;;;;;;;;;5047097;28;20025;-67
2020/12/26 02:31:02;;;;;;;2.85;1.30;;;;;;;;;;5047905;28;20029;-67
2020/12/26 02:33:28;;;;;;;2.85;1.20;;;;;;;;;;5047190;28;20033;-67
2020/12/26 02:35:54;;;;;;;4.05;1.20;;;;;;;;;;5046794;28;20025;-67
2020/12/26 02:38:20;;;;;;;4.22;1.40;;;;;;;;;;5046570;28;20479;-67
2020/12/26 02:40:47;;;;;;;4.15;1.10;;;;;;;;;;5046785;28;20506;-67
2020/12/26 02:43:21;;;;;;;2.33;1.13;;;;;;;;;;5045923;28;20029;-67
2020/12/26 02:45:48;;;;;;;2.05;1.15;;;;;;;;;;5046723;28;20671;-67
2020/12/26 02:48:14;;;;;;;2.80;1.10;;;;;;;;;;5045936;28;20032;-68
2020/12/26 02:50:40;;;;;;;2.75;1.20;;;;;;;;;;5046579;28;20025;-67
2020/12/26 02:53:06;;;;;;;1.33;1.00;;;;;;;;;;5045700;28;20035;-66
2020/12/26 02:55:32;;;;;;;4.35;1.13;;;;;;;;;;5047220;28;20551;-67
2020/12/26 02:57:59;;;;;;;3.78;1.30;;;;;;;;;;5046567;28;20033;-67
2020/12/26 03:00:25;;;;;;;4.25;1.27;;;;;;;;;;5046729;28;20755;-67
2020/12/26 03:02:51;;;;;;;2.25;1.20;;;;;;;;;;5045718;28;20068;-67
2020/12/26 03:05:17;;;;;;;3.55;1.67;;;;;;;;;;5046531;28;20108;-67
2020/12/26 03:07:43;;;;;;;5.15;1.70;;;;;;;;;;5045731;28;20138;-66
2020/12/26 03:10:09;;;;;;;3.78;1.40;;;;;;;;;;5045677;28;20099;-66
2020/12/26 03:12:36;;;;;;;3.10;1.63;;;;;;;;;;5046616;28;20028;-66
2020/12/26 03:15:02;;;;;;;4.15;1.30;;;;;;;;;;5046946;28;20516;-66
2020/12/26 03:17:28;;;;;;;2.38;1.20;;;;;;;;;;5046272;28;20040;-66
2020/12/26 03:19:54;;;;;;;4.30;1.38;;;;;;;;;;5045966;28;20040;-65
2020/12/26 03:22:20;;;;;;;2.15;1.33;;;;;;;;;;5044895;28;20104;-66
2020/12/26 03:24:46;;;;;;;4.03;1.20;;;;;;;;;;5046008;28;20029;-66
2020/12/26 03:27:12;;;;;;;3.25;1.30;;;;;;;;;;5046007;28;20483;-66
2020/12/26 03:29:38;;;;;;;4.30;1.40;;;;;;;;;;5045008;28;20033;-66
2020/12/26 03:32:04;;;;;;;3.35;1.58;;;;;;;;;;5046077;28;20399;-66
2020/12/26 03:34:30;;;;;;;4.15;1.25;;;;;;;;;;5044955;28;20055;-65
2020/12/26 03:36:56;;;;;;;3.60;1.10;;;;;;;;;;5044899;28;20432;-66
2020/12/26 03:39:22;;;;;;;4.28;1.63;;;;;;;;;;5046065;28;20495;-66
2020/12/26 03:41:48;;;;;;;6.75;1.70;;;;;;;;;;5046360;28;20032;-66
2020/12/26 03:44:14;;;;;;;3.00;1.13;;;;;;;;;;5045328;28;20037;-66
2020/12/26 03:46:40;;;;;;;4.78;2.47;;;;;;;;;;5044165;28;20108;-67
2020/12/26 03:49:06;;;;;;;3.58;1.30;;;;;;;;;;5046220;28;20033;-66
2020/12/26 03:51:32;;;;;;;2.40;1.15;;;;;;;;;;5045457;28;20032;-67
2020/12/26 03:53:58;;;;;;;3.42;1.17;;;;;;;;;;5046037;28;20036;-67
2020/12/26 03:56:25;;;;;;;2.90;1.13;;;;;;;;;;5045970;28;20060;-66
2020/12/26 03:58:51;;;;;;;3.75;1.35;;;;;;;;;;5045735;28;20040;-66
2020/12/26 04:01:17;;;;;;;3.60;1.25;;;;;;;;;;5045445;28;20040;-67
2020/12/26 04:03:43;;;;;;;4.70;1.08;;;;;;;;;;5045408;28;20128;-66
2020/12/26 04:06:09;;;;;;;3.47;1.33;;;;;;;;;;5044737;28;20112;-66
2020/12/26 04:08:35;;;;;;;2.85;1.67;;;;;;;;;;5045538;28;20041;-67
2020/12/26 04:11:01;;;;;;;4.38;1.40;;;;;;;;;;5045438;28;20392;-66
2020/12/26 04:13:27;;;;;;;2.78;1.30;;;;;;;;;;5045830;28;20472;-67
2020/12/26 04:15:53;;;;;;;5.15;1.73;;;;;;;;;;5045408;28;20537;-67
2020/12/26 04:18:19;;;;;;;3.88;2.05;;;;;;;;;;5045817;28;20100;-66
2020/12/26 04:20:45;;;;;;;3.65;1.60;;;;;;;;;;5045758;28;20021;-67
2020/12/26 04:23:11;;;;;;;3.42;1.70;;;;;;;;;;5045432;28;20418;-65
2020/12/26 04:25:37;;;;;;;4.28;1.38;;;;;;;;;;5045347;28;20033;-66
2020/12/26 04:28:03;;;;;;;1.70;1.27;;;;;;;;;;5045489;28;20441;-66
2020/12/26 04:30:29;;;;;;;3.35;1.40;;;;;;;;;;5045931;28;20029;-65
2020/12/26 04:32:55;;;;;;;2.42;1.60;;;;;;;;;;5045712;28;20039;-66
2020/12/26 04:35:21;;;;;;;2.70;1.20;;;;;;;;;;5045577;28;20465;-66
2020/12/26 04:37:48;;;;;;;4.70;1.40;;;;;;;;;;5045631;28;20040;-66
2020/12/26 04:40:14;;;;;;;2.70;1.50;;;;;;;;;;5044630;28;20025;-66
2020/12/26 04:42:42;;;;;;;4.47;1.88;;;;;;;;;;5044238;28;20043;-66
2020/12/26 04:45:08;;;;;;;4.80;1.55;;;;;;;;;;5044751;28;20056;-66
2020/12/26 04:47:41;;;;;;;2.58;1.13;;;;;;;;;;5044988;28;20085;-66
2020/12/26 04:50:07;;;;;;;3.75;1.83;;;;;;;;;;5048596;28;20480;-67
2020/12/26 04:52:34;;;;;;;2.50;1.55;;;;;;;;;;5048789;28;20029;-66
2020/12/26 04:55:04;;;;;;;1.92;1.30;;;;;;;;;;5048853;28;20024;-66
2020/12/26 04:57:36;;;;;;;3.65;1.38;;;;;;;;;;5048673;28;20029;-66
2020/12/26 05:00:04;;;;;;;3.28;1.52;;;;;;;;;;5048748;28;20021;-66
2020/12/26 05:02:36;;;;;;;4.70;1.10;;;;;;;;;;5048472;28;20037;-67
2020/12/26 05:05:03;;;;;;;2.83;1.20;;;;;;;;;;5048673;28;20040;-66
2020/12/26 05:07:30;;;;;;;3.50;1.42;;;;;;;;;;5048354;28;20053;-66
2020/12/26 05:09:56;;;;;;;2.20;1.15;;;;;;;;;;5047961;28;20029;-66
2020/12/26 05:12:22;;;;;;;1.45;1.00;;;;;;;;;;5048506;28;20628;-66
2020/12/26 05:14:51;;;;;;;1.17;1.00;;;;;;;;;;5048751;28;20029;-67
2020/12/26 05:17:17;;;;;;;1.98;1.30;;;;;;;;;;5048884;28;20026;-67
2020/12/26 05:19:44;;;;;;;4.07;1.30;;;;;;;;;;5048204;28;20055;-67
2020/12/26 05:22:10;;;;;;;3.35;1.40;;;;;;;;;;5047454;28;20036;-67
2020/12/26 05:24:36;;;;;;;4.28;1.48;;;;;;;;;;5048321;28;20052;-67
2020/12/26 05:27:02;;;;;;;2.72;1.15;;;;;;;;;;5046696;28;20513;-67
2020/12/26 05:29:29;;;;;;;2.15;1.30;;;;;;;;;;5048180;28;20067;-66
2020/12/26 05:31:57;;;;;;;6.88;1.27;;;;;;;;;;5047957;28;20021;-67
2020/12/26 05:34:29;;;;;;;3.00;1.38;;;;;;;;;;5047960;28;20045;-66
2020/12/26 05:36:58;;;;;;;6.38;2.05;;;;;;;;;;5047791;28;20059;-66
2020/12/26 05:39:28;;;;;;;5.60;1.83;;;;;;;;;;5047201;28;20043;-67
2020/12/26 05:41:55;;;;;;;4.90;2.22;;;;;;;;;;5047128;28;20028;-67
2020/12/26 05:44:24;;;;;;;3.67;1.50;;;;;;;;;;5047183;28;20029;-66
2020/12/26 05:46:54;;;;;;;2.50;1.95;;;;;;;;;;5047508;28;20059;-68
2020/12/26 05:49:46;;;;;;;1.77;1.30;;;;;;;;;;5048364;28;20062;-67
2020/12/26 05:52:13;;;;;;;5.05;1.60;;;;;;;;;;5044362;28;20048;-66
2020/12/26 05:54:49;;;;;;;3.38;1.60;;;;;;;;;;5047783;28;20025;-67
2020/12/26 05:57:16;;;;;;;4.60;1.85;;;;;;;;;;5048196;28;20026;-67
2020/12/26 05:59:46;;;;;;;8.18;1.50;;;;;;;;;;5046254;28;20052;-66
2020/12/26 06:02:21;;;;;;;3.63;2.15;;;;;;;;;;5027071;28;20042;-66
2020/12/26 06:05:00;;;;;;;3.92;2.20;;;;;;;;;;5027197;28;20049;-67
2020/12/26 06:07:28;;;;;;;2.42;1.48;;;;;;;;;;5027762;28;20033;-66
2020/12/26 06:09:55;;;;;;;4.43;1.80;;;;;;;;;;5026877;28;20112;-67
2020/12/26 06:12:21;;;;;;;3.25;1.65;;;;;;;;;;5027574;28;20061;-65
2020/12/26 06:14:49;;;;;;;4.82;2.13;;;;;;;;;;5027764;28;20488;-67
2020/12/26 06:17:20;;;;;;;3.67;1.42;;;;;;;;;;5027755;28;20029;-67
2020/12/26 06:19:47;;;;;;;3.08;1.38;;;;;;;;;;5027712;28;20041;-66
2020/12/26 06:22:13;;;;;;;2.85;1.30;;;;;;;;;;5027328;28;20594;-68
2020/12/26 06:24:39;;;;;;;3.65;1.50;;;;;;;;;;5027517;28;20029;-67
2020/12/26 06:27:06;;;;;;;4.32;1.40;;;;;;;;;;5027098;28;20042;-67
2020/12/26 06:29:34;;;;;;;2.40;1.20;;;;;;;;;;5027196;28;20068;-67
2020/12/26 06:32:01;;;;;;;3.08;1.48;;;;;;;;;;5026927;28;20033;-67
2020/12/26 06:34:27;;;;;;;2.63;1.40;;;;;;;;;;5027011;28;20034;-67
2020/12/26 06:36:57;;;;;;;2.55;1.27;;;;;;;;;;5026762;28;20068;-67
2020/12/26 06:39:26;;;;;;;2.67;1.50;;;;;;;;;;5032487;28;20025;-67
2020/12/26 06:42:11;;;;;;;4.03;1.70;;;;;;;;;;5046640;28;20025;-67
2020/12/26 06:44:37;;;;;;;6.43;2.22;;;;;;;;;;5045961;28;20062;-67
2020/12/26 06:47:04;;;;;;;3.50;1.38;;;;;;;;;;5046422;28;20032;-67
2020/12/26 06:49:30;;;;;;;4.25;1.80;;;;;;;;;;5046389;28;20037;-66
2020/12/26 06:51:56;;;;;;;4.25;1.33;;;;;;;;;;5046004;28;20025;-67
2020/12/26 06:54:41;;;;;;;2.67;1.23;;;;;;;;;;5045290;28;20399;-67
2020/12/26 06:57:07;;;;;;;2.38;1.15;;;;;;;;;;5046491;28;20021;-67
2020/12/26 06:59:35;;;;;;;5.95;2.35;;;;;;;;;;5045563;28;20021;-67
2020/12/26 07:02:05;;;;;;;2.95;1.50;;;;;;;;;;5043928;28;20044;-67
2020/12/26 07:04:41;;;;;;;2.72;1.80;;;;;;;;;;5046275;28;20060;-67
2020/12/26 07:07:09;;;;;;;4.40;1.60;;;;;;;;;;5046372;28;20048;-67
2020/12/26 07:09:38;;;;;;;5.45;1.73;;;;;;;;;;5044801;28;20036;-67
2020/12/26 07:12:05;;;;;;;3.95;1.63;;;;;;;;;;5045224;28;20131;-67
2020/12/26 07:14:31;;;;;;;4.30;2.28;;;;;;;;;;5046187;28;20033;-67
2020/12/26 07:17:02;;;;;;;3.92;2.25;;;;;;;;;;5042940;28;20120;-68
2020/12/26 07:19:40;;;;;;;2.63;1.63;;;;;;;;;;5044097;28;20399;-67
2020/12/26 07:22:13;;;;;;;7.97;2.17;;;;;;;;;;5045404;28;20025;-67
2020/12/26 07:24:41;;;;;;;3.80;2.00;;;;;;;;;;5044624;28;20036;-68
2020/12/26 07:27:14;;;;;;;5.13;2.58;;;;;;;;;;5044866;28;20028;-68
2020/12/26 07:29:59;;;;;;;5.97;2.13;;;;;;;;;;5046397;28;20076;-67
2020/12/26 07:35:06;;;;;;;2.97;1.60;;;;;;;;;;5045979;28;20112;-67
2020/12/26 07:37:32;;;;;;;3.88;1.85;;;;;;;;;;5046035;28;20100;-67
2020/12/26 07:39:59;;;;;;;3.42;1.80;;;;;;;;;;5045787;28;20025;-67
2020/12/26 07:42:25;;;;;;;3.63;1.70;;;;;;;;;;5045652;28;20031;-67
2020/12/26 07:44:51;;;;;;;4.00;1.80;;;;;;;;;;5045753;28;20029;-67
2020/12/26 07:47:17;;;;;;;2.92;1.40;;;;;;;;;;5046588;28;20522;-67
2020/12/26 07:49:55;;;;;;;2.75;1.60;;;;;;;;;;5045679;28;20100;-67
2020/12/26 07:52:21;;;;;;;5.53;2.17;;;;;;;;;;5044323;28;20072;-67
2020/12/26 07:54:57;;;;;;;6.85;2.28;;;;;;;;;;5046437;28;20755;-68
2020/12/26 07:57:23;;;;;;;3.70;1.77;;;;;;;;;;5045818;28;20509;-67
2020/12/26 07:59:49;;;;;;;3.65;2.10;;;;;;;;;;5046303;28;20021;-68
2020/12/26 08:02:15;;;;;;;3.53;2.15;;;;;;;;;;5045612;28;20410;-68
2020/12/26 08:04:44;;;;;;;5.47;2.30;;;;;;;;;;5044681;28;20083;-67
2020/12/26 08:07:11;;;;;;;2.55;1.50;;;;;;;;;;5045967;28;20032;-67
2020/12/26 08:09:37;;;;;;;4.47;1.83;;;;;;;;;;5045428;28;20086;-67
2020/12/26 08:12:07;;;;;;;7.63;2.08;;;;;;;;;;5045480;28;20040;-67
2020/12/26 08:14:33;;;;;;;3.08;2.03;;;;;;;;;;5045881;28;20021;-67
2020/12/26 08:16:59;;;;;;;2.22;1.80;;;;;;;;;;5045555;28;20029;-67
2020/12/26 08:19:26;;;;;;;5.53;2.03;;;;;;;;;;5045443;28;20025;-67
2020/12/26 08:21:59;;;;;;;2.90;1.90;;;;;;;;;;5045454;28;20017;-67
2020/12/26 08:24:25;;;;;;;5.82;2.28;;;;;;;;;;5047859;28;20033;-67
2020/12/26 08:26:54;;;;;;;3.20;1.90;;;;;;;;;;5049490;28;20025;-67
2020/12/26 08:29:26;;;;;;;4.55;2.03;;;;;;;;;;5050245;28;20104;-67
2020/12/26 08:31:55;;;;;;;3.28;2.00;;;;;;;;;;5047966;28;20024;-67
2020/12/26 08:34:32;;;;;;;3.15;2.17;;;;;;;;;;5049234;28;20029;-67
2020/12/26 08:37:05;;;;;;;3.30;2.00;;;;;;;;;;5049132;28;20100;-67
2020/12/26 08:39:33;;;;;;;3.97;1.85;;;;;;;;;;5049412;28;20083;-68
2020/12/26 08:42:00;;;;;;;4.68;2.47;;;;;;;;;;5048883;28;20371;-67
2020/12/26 08:44:30;;;;;;;3.70;2.08;;;;;;;;;;5048695;28;20025;-67
2020/12/26 08:46:56;;;;;;;2.55;1.67;;;;;;;;;;5048885;28;20025;-68
2020/12/26 08:49:22;;;;;;;3.05;1.95;;;;;;;;;;5049033;28;20060;-67
2020/12/26 08:51:48;;;;;;;5.60;1.90;;;;;;;;;;5049638;28;20514;-68
2020/12/26 08:54:21;;;;;;;3.15;1.95;;;;;;;;;;5049021;28;20033;-68
2020/12/26 08:56:47;;;;;;;5.73;2.07;;;;;;;;;;5048077;28;20029;-68
2020/12/26 08:59:13;;;;;;;3.75;1.85;;;;;;;;;;5047933;28;20342;-67
2020/12/26 09:01:40;;;;;;;2.15;1.30;;;;;;;;;;5048297;28;20052;-67
2020/12/26 09:04:15;;;;;;;2.65;1.60;;;;;;;;;;5048417;28;20025;-68
2020/12/26 09:06:42;;;;;;;2.65;1.50;;;;;;;;;;5048397;28;20139;-67
2020/12/26 09:09:15;;;;;;;3.92;2.00;;;;;;;;;;5048382;28;20025;-67
2020/12/26 09:11:41;;;;;;;2.78;1.67;;;;;;;;;;5047933;28;20103;-67
2020/12/26 09:14:20;;;;;;;1.83;1.60;;;;;;;;;;5048540;28;20086;-67
2020/12/26 09:16:46;;;;;;;5.88;2.67;;;;;;;;;;5046301;28;20036;-68
2020/12/26 09:19:12;;;;;;;6.80;2.30;;;;;;;;;;5048188;28;20404;-67
2020/12/26 09:21:38;;;;;;;3.65;2.05;;;;;;;;;;5048194;28;20033;-67
2020/12/26 09:24:15;;;;;;;5.65;2.47;;;;;;;;;;5048459;28;20509;-68
2020/12/26 09:26:41;;;;;;;3.60;2.20;;;;;;;;;;5047938;28;20029;-68
2020/12/26 09:29:07;;;;;;;5.38;3.00;;;;;;;;;;5048186;28;20071;-67
2020/12/26 09:31:37;;;;;;;4.60;2.38;;;;;;;;;;5047443;28;20479;-67
2020/12/26 09:34:24;;;;;;;3.78;2.30;;;;;;;;;;5047750;28;20071;-67
2020/12/26 09:37:10;;;;;;;5.00;2.10;;;;;;;;;;5047145;28;20044;-68
2020/12/26 09:39:37;;;;;;;3.13;1.92;;;;;;;;;;5047999;28;20446;-67
2020/12/26 09:42:04;;;;;;;6.10;3.45;;;;;;;;;;5047569;28;20093;-68
2020/12/26 09:44:30;;;;;;;23.25;7.80;;;;;;;;;;5048010;28;20063;-69
2020/12/26 09:47:03;;;;;;;44.92;15.02;;;;;;;;;;5047590;28;20107;-70
2020/12/26 09:49:29;;;;;;;40.42;15.02;;;;;;;;;;5047695;28;20029;-69
2020/12/26 09:51:55;;;;;;;39.70;12.73;;;;;;;;;;5047312;28;20577;-69
2020/12/26 09:54:21;;;;;;;73.57;22.38;;;;;;;;;;5048450;28;20025;-69
2020/12/26 09:56:47;;;;;;;52.30;16.55;;;;;;;;;;5048007;28;20110;-70
2020/12/26 09:59:13;;;;;;;43.65;14.65;;;;;;;;;;5046361;28;20558;-69
2020/12/26 10:01:39;;;;;;;41.22;12.55;;;;;;;;;;5046615;28;20756;-69
2020/12/26 10:04:06;;;;;;;40.13;13.23;;;;;;;;;;5047877;28;20033;-69
2020/12/26 10:06:32;;;;;;;36.30;12.65;;;;;;;;;;5043772;28;20502;-70
2020/12/26 10:08:58;;;;;;;22.77;9.88;;;;;;;;;;5030481;28;20499;-69
2020/12/26 10:11:24;;;;;;;17.05;7.05;;;;;;;;;;5044020;28;20108;-70
2020/12/26 10:13:50;;;;;;;13.02;6.15;;;;;;;;;;5046179;28;20474;-70
2020/12/26 10:16:17;;;;;;;10.15;4.80;;;;;;;;;;5046343;28;20575;-70
2020/12/26 10:18:43;;;;;;;9.07;4.10;;;;;;;;;;5046350;28;20118;-71
2020/12/26 10:21:10;;;;;;;12.73;4.28;;;;;;;;;;5045771;28;20025;-70
2020/12/26 10:23:36;;;;;;;7.20;3.38;;;;;;;;;;5046844;28;20398;-71
2020/12/26 10:26:05;;;;;;;5.68;2.85;;;;;;;;;;5045913;28;20033;-70
2020/12/26 10:28:32;;;;;;;5.53;2.75;;;;;;;;;;5046561;28;20086;-69
2020/12/26 10:30:59;;;;;;;7.10;3.40;;;;;;;;;;5043416;28;20549;-69
2020/12/26 10:33:25;;;;;;;4.20;2.65;;;;;;;;;;5045400;28;20068;-70
2020/12/26 10:35:51;;;;;;;7.80;3.25;;;;;;;;;;5046927;28;20052;-69
2020/12/26 10:38:18;;;;;;;4.07;2.45;;;;;;;;;;5046501;28;20398;-70
2020/12/26 10:40:44;;;;;;;4.47;2.45;;;;;;;;;;5045483;28;20103;-70
2020/12/26 10:43:10;;;;;;;5.53;2.28;;;;;;;;;;5045614;28;20456;-69
2020/12/26 10:45:36;;;;;;;4.78;2.15;;;;;;;;;;5045379;28;20025;-69
2020/12/26 10:48:03;;;;;;;4.03;2.03;;;;;;;;;;5044386;28;20030;-69
2020/12/26 10:50:29;;;;;;;2.85;1.75;;;;;;;;;;5044105;28;20083;-70
2020/12/26 10:52:55;;;;;;;2.92;1.75;;;;;;;;;;5044040;28;20048;-68
2020/12/26 10:55:21;;;;;;;7.13;2.30;;;;;;;;;;5047566;28;20021;-68
2020/12/26 10:57:47;;;;;;;4.35;2.53;;;;;;;;;;5036464;28;20030;-68
2020/12/26 11:00:13;;;;;;;6.20;2.67;;;;;;;;;;5042914;28;20829;-69
2020/12/26 11:02:40;;;;;;;2.97;2.03;;;;;;;;;;5043858;28;20036;-68
2020/12/26 11:05:06;;;;;;;4.95;2.40;;;;;;;;;;5045493;28;20029;-70
2020/12/26 11:07:33;;;;;;;5.68;3.03;;;;;;;;;;5044968;28;20029;-66
2020/12/26 11:09:59;;;;;;;5.97;3.15;;;;;;;;;;5050710;28;20455;-68
2020/12/26 11:12:26;;;;;;;6.65;2.85;;;;;;;;;;5044103;28;20068;-68
2020/12/26 11:14:52;;;;;;;7.60;3.13;;;;;;;;;;5043581;28;20024;-69
2020/12/26 11:17:18;;;;;;;7.00;2.80;;;;;;;;;;5046106;28;20025;-69
2020/12/26 11:19:44;;;;;;;4.70;2.58;;;;;;;;;;5044008;28;20029;-69
2020/12/26 11:22:10;;;;;;;4.15;2.10;;;;;;;;;;5043037;28;20461;-69
2020/12/26 11:24:36;;;;;;;4.15;2.20;;;;;;;;;;5044826;28;20086;-69
2020/12/26 11:27:03;;;;;;;3.67;2.40;;;;;;;;;;5043140;28;20033;-68
2020/12/26 11:29:30;;;;;;;4.35;2.13;;;;;;;;;;5044414;28;20089;-67
2020/12/26 11:31:59;;;;;;;4.63;2.10;;;;;;;;;;5043065;28;20025;-68
2020/12/26 11:34:26;;;;;;;3.60;2.15;;;;;;;;;;5036044;28;20101;-67
2020/12/26 11:36:52;;;;;;;3.92;1.88;;;;;;;;;;5044712;28;20029;-67
2020/12/26 11:39:19;;;;;;;3.88;1.60;;;;;;;;;;5039923;28;20029;-69
2020/12/26 11:41:45;;;;;;;3.63;1.45;;;;;;;;;;5042345;28;20487;-68
2020/12/26 11:44:13;;;;;;;4.13;2.00;;;;;;;;;;5044271;28;20040;-69
2020/12/26 11:46:39;;;;;;;2.63;1.60;;;;;;;;;;5045009;28;20162;-75
2020/12/26 11:49:05;;;;;;;3.20;1.48;;;;;;;;;;5044049;28;20028;-69
2020/12/26 11:51:32;;;;;;;3.53;1.42;;;;;;;;;;5045478;28;20433;-72
2020/12/26 11:53:59;;;;;;;7.68;2.90;;;;;;;;;;5044988;28;20132;-70
2020/12/26 11:56:25;;;;;;;10.25;3.50;;;;;;;;;;5045953;28;20507;-69
2020/12/26 11:58:52;;;;;;;7.90;2.85;;;;;;;;;;5045143;28;20017;-69
2020/12/26 12:01:18;;;;;;;12.32;4.65;;;;;;;;;;5048967;28;20037;-70
2020/12/26 12:03:45;;;;;;;9.75;3.78;;;;;;;;;;5047450;28;20167;-70
2020/12/26 12:06:12;;;;;;;8.70;3.65;;;;;;;;;;5048859;28;21099;-72
2020/12/26 12:08:38;;;;;;;6.45;2.97;;;;;;;;;;5049704;28;20033;-69
2020/12/26 12:11:04;;;;;;;4.07;2.45;;;;;;;;;;5048891;28;20493;-70
2020/12/26 12:13:30;;;;;;;4.55;2.30;;;;;;;;;;5049510;28;20037;-70
2020/12/26 12:15:56;;;;;;;6.97;2.67;;;;;;;;;;5047101;28;20090;-69
2020/12/26 12:18:22;;;;;;;6.50;2.05;;;;;;;;;;5049537;28;20510;-69
2020/12/26 12:20:48;;;;;;;8.60;3.45;;;;;;;;;;5049924;28;20029;-70
2020/12/26 12:23:14;;;;;;;10.90;4.05;;;;;;;;;;5048710;28;20035;-70
2020/12/26 12:25:40;;;;;;;8.57;3.95;;;;;;;;;;5049333;28;20032;-69
2020/12/26 12:28:07;;;;;;;8.38;2.88;;;;;;;;;;5048645;28;20087;-68
2020/12/26 12:30:33;;;;;;;5.78;2.58;;;;;;;;;;5048876;28;20078;-69
2020/12/26 12:32:59;;;;;;;4.22;2.00;;;;;;;;;;5048010;28;20052;-70
2020/12/26 12:35:25;;;;;;;5.70;2.45;;;;;;;;;;5049444;28;20552;-70
2020/12/26 12:37:51;;;;;;;5.93;3.15;;;;;;;;;;5049204;28;20025;-69
2020/12/26 12:40:18;;;;;;;5.20;2.25;;;;;;;;;;5049865;28;20048;-69
2020/12/26 12:42:45;;;;;;;6.55;2.28;;;;;;;;;;5048873;28;20029;-69
2020/12/26 12:45:11;;;;;;;3.47;1.85;;;;;;;;;;5049211;28;20082;-69
2020/12/26 12:47:37;;;;;;;3.75;1.65;;;;;;;;;;5048548;28;20033;-71
2020/12/26 12:50:04;;;;;;;3.55;1.80;;;;;;;;;;5046181;28;20033;-69
2020/12/26 12:52:30;;;;;;;3.50;1.52;;;;;;;;;;5048542;28;20025;-70
2020/12/26 12:54:56;;;;;;;5.07;1.98;;;;;;;;;;5048501;28;20497;-74
2020/12/26 12:57:22;;;;;;;4.35;1.77;;;;;;;;;;5048938;28;20411;-72
2020/12/26 12:59:48;;;;;;;6.25;2.10;;;;;;;;;;5049134;28;20029;-72
2020/12/26 13:02:14;;;;;;;3.42;1.98;;;;;;;;;;5047146;28;20108;-69
2020/12/26 13:04:40;;;;;;;2.92;1.95;;;;;;;;;;5046692;28;20935;-69
2020/12/26 13:07:06;;;;;;;2.47;1.50;;;;;;;;;;5048737;28;20506;-69
2020/12/26 13:09:32;;;;;;;3.20;1.85;;;;;;;;;;5047262;28;20512;-69
2020/12/26 13:11:58;;;;;;;3.67;2.47;;;;;;;;;;5046886;28;20029;-68
2020/12/26 13:14:25;;;;;;;3.55;1.83;;;;;;;;;;5046926;28;20033;-69
2020/12/26 13:16:53;;;;;;;3.08;1.77;;;;;;;;;;5046221;28;20044;-68
2020/12/26 13:19:19;;;;;;;4.32;1.45;;;;;;;;;;5047656;28;20028;-70
2020/12/26 13:21:45;;;;;;;2.42;1.30;;;;;;;;;;5046801;28;20041;-68
2020/12/26 13:24:11;;;;;;;3.90;1.50;;;;;;;;;;5046614;28;20033;-68
2020/12/26 13:26:37;;;;;;;3.45;1.63;;;;;;;;;;5045338;28;20100;-68
2020/12/26 13:29:03;;;;;;;3.20;1.50;;;;;;;;;;5045582;28;20029;-68
2020/12/26 13:31:32;;;;;;;2.92;1.63;;;;;;;;;;5045347;28;20521;-67
2020/12/26 13:33:58;;;;;;;4.28;1.88;;;;;;;;;;5044990;28;20489;-69
2020/12/26 13:36:27;;;;;;;2.58;1.60;;;;;;;;;;5047480;28;20107;-69
2020/12/26 13:38:54;;;;;;;6.10;1.70;;;;;;;;;;5046864;28;20029;-69
2020/12/26 13:41:20;;;;;;;3.22;1.58;;;;;;;;;;5045823;28;20462;-68
2020/12/26 13:43:49;;;;;;;4.40;1.95;;;;;;;;;;5046028;28;20075;-69
2020/12/26 13:46:15;;;;;;;4.07;2.08;;;;;;;;;;5046518;28;20032;-70
2020/12/26 13:48:41;;;;;;;5.85;2.72;;;;;;;;;;5046131;28;20415;-69
2020/12/26 13:51:08;;;;;;;3.22;2.00;;;;;;;;;;5046243;28;20108;-71
2020/12/26 13:53:34;;;;;;;4.72;2.10;;;;;;;;;;5046385;28;20033;-72
2020/12/26 13:56:00;;;;;;;4.45;1.80;;;;;;;;;;5046472;28;20111;-69
2020/12/26 13:58:26;;;;;;;3.38;1.80;;;;;;;;;;5046756;28;20059;-72
2020/12/26 14:00:52;;;;;;;2.55;1.70;;;;;;;;;;5045259;28;20021;-69
2020/12/26 14:03:18;;;;;;;3.55;1.58;;;;;;;;;;5045217;28;20040;-68
2020/12/26 14:05:44;;;;;;;4.15;1.95;;;;;;;;;;5045869;28;20572;-71
2020/12/26 14:08:11;;;;;;;3.03;1.70;;;;;;;;;;5046235;28;20056;-69
2020/12/26 14:10:37;;;;;;;3.42;1.65;;;;;;;;;;5045519;28;20029;-69
2020/12/26 14:13:03;;;;;;;6.90;2.83;;;;;;;;;;5045552;28;20029;-69
2020/12/26 14:15:29;;;;;;;5.70;2.58;;;;;;;;;;5045564;28;20056;-70
2020/12/26 14:17:55;;;;;;;4.85;2.25;;;;;;;;;;5045809;28;20039;-71
2020/12/26 14:20:21;;;;;;;5.45;2.50;;;;;;;;;;5045847;28;20398;-68
2020/12/26 14:22:47;;;;;;;6.65;3.20;;;;;;;;;;5044804;28;20024;-69
2020/12/26 14:25:14;;;;;;;7.10;2.35;;;;;;;;;;5045785;28;20044;-70
2020/12/26 14:27:40;;;;;;;5.03;2.17;;;;;;;;;;5045626;28;20065;-69
2020/12/26 14:30:06;;;;;;;6.32;3.00;;;;;;;;;;5045592;28;20497;-70
2020/12/26 14:32:32;;;;;;;14.80;5.55;;;;;;;;;;5045460;28;20074;-70
2020/12/26 14:34:58;;;;;;;17.70;5.30;;;;;;;;;;5045258;28;20029;-70
2020/12/26 14:37:24;;;;;;;16.20;5.60;;;;;;;;;;5045964;28;20025;-69
2020/12/26 14:39:50;;;;;;;6.68;3.28;;;;;;;;;;5045290;28;20036;-69
2020/12/26 14:42:16;;;;;;;8.00;3.38;;;;;;;;;;5044280;28;20083;-69
2020/12/26 14:44:42;;;;;;;6.22;2.55;;;;;;;;;;5044561;28;20025;-69
2020/12/26 14:47:09;;;;;;;6.72;2.67;;;;;;;;;;5045607;28;20039;-69